Time;durP1;ratioP1;P1;durP2;ratioP2;P2;SDS_P1;SDS_P2;PMS_P1;PMS_P2;Temp;Humidity;BMP_temperature;BMP_pressure;BME280_temperature;BME280_humidity;BME280_pressure;Samples;Min_cycle;Max_cycle;Signal;HPM_P1;HPM_P2
2021/11/18 00:01:14;;;;;;;1.27;0.40;;;5.70;99.90;;;;;;5037321;28;20420;-88
2021/11/18 00:03:41;;;;;;;0.40;0.40;;;5.70;99.90;;;;;;5037038;28;20454;-88
2021/11/18 00:06:08;;;;;;;0.40;0.30;;;5.70;99.90;;;;;;5037250;28;20439;-88
2021/11/18 00:08:35;;;;;;;0.37;0.37;;;5.70;99.90;;;;;;5037191;28;20431;-88
2021/11/18 00:11:05;;;;;;;0.30;0.30;;;5.70;99.90;;;;;;5036769;28;20462;-88
2021/11/18 00:13:34;;;;;;;0.73;0.60;;;5.70;99.90;;;;;;5037634;28;20835;-88
2021/11/18 00:16:01;;;;;;;0.30;0.30;;;5.70;99.90;;;;;;5036846;28;20431;-87
2021/11/18 00:18:31;;;;;;;0.30;0.20;;;5.70;99.90;;;;;;5036441;28;20431;-87
2021/11/18 00:20:59;;;;;;;0.50;0.50;;;5.70;99.90;;;;;;5036739;28;20454;-87
2021/11/18 00:23:29;;;;;;;0.50;0.50;;;5.70;99.90;;;;;;5036583;28;20461;-87
2021/11/18 00:25:56;;;;;;;0.30;0.27;;;5.70;99.90;;;;;;5036686;28;20489;-87
2021/11/18 00:28:24;;;;;;;0.40;0.40;;;5.70;99.90;;;;;;5036338;28;20439;-87
2021/11/18 00:30:51;;;;;;;0.40;0.30;;;5.70;99.90;;;;;;5036679;28;20474;-87
2021/11/18 00:33:18;;;;;;;0.30;0.20;;;5.60;99.90;;;;;;5036428;28;20938;-87
2021/11/18 00:35:45;;;;;;;0.30;0.30;;;5.60;99.90;;;;;;5036532;28;20454;-87
2021/11/18 00:38:12;;;;;;;0.30;0.30;;;5.70;99.90;;;;;;5036534;28;20442;-87
2021/11/18 00:40:42;;;;;;;2.10;0.50;;;5.60;99.90;;;;;;5036428;28;20451;-87
2021/11/18 00:43:10;;;;;;;0.73;0.43;;;5.60;99.90;;;;;;5035971;28;20441;-87
2021/11/18 00:45:39;;;;;;;0.30;0.20;;;5.60;99.90;;;;;;5036340;28;20451;-87
2021/11/18 00:48:07;;;;;;;0.40;0.40;;;5.60;99.90;;;;;;5035958;28;20477;-87
2021/11/18 00:50:37;;;;;;;0.60;0.60;;;5.50;99.90;;;;;;5035919;28;20446;-88
2021/11/18 00:53:04;;;;;;;0.30;0.30;;;5.60;99.90;;;;;;5036021;28;20422;-87
2021/11/18 00:55:33;;;;;;;0.30;0.20;;;5.60;99.90;;;;;;5036152;28;20466;-88
2021/11/18 00:57:59;;;;;;;0.40;0.40;;;5.60;99.90;;;;;;5035809;28;20442;-87
2021/11/18 01:00:29;;;;;;;0.30;0.30;;;5.60;99.90;;;;;;5035669;28;20934;-87
2021/11/18 01:02:58;;;;;;;0.30;0.20;;;5.60;99.90;;;;;;5036049;28;20459;-87
2021/11/18 01:05:28;;;;;;;0.30;0.30;;;5.60;99.90;;;;;;5035871;28;20467;-87
2021/11/18 01:07:57;;;;;;;0.30;0.20;;;5.60;99.90;;;;;;5035894;28;20462;-87
2021/11/18 01:10:25;;;;;;;0.43;0.30;;;5.60;99.90;;;;;;5035643;28;20481;-85
2021/11/18 01:12:51;;;;;;;0.60;0.60;;;5.60;99.90;;;;;;5035099;28;20475;-86
2021/11/18 01:15:24;;;;;;;0.50;0.50;;;5.60;99.90;;;;;;5035153;28;20450;-85
2021/11/18 01:17:51;;;;;;;0.30;0.27;;;5.60;99.90;;;;;;5035462;28;20414;-85
2021/11/18 01:20:23;;;;;;;1.37;1.27;;;5.60;99.90;;;;;;5035343;28;20473;-85
2021/11/18 01:22:50;;;;;;;0.40;0.40;;;5.60;99.90;;;;;;5035447;28;20450;-85
2021/11/18 01:25:17;;;;;;;0.30;0.30;;;5.60;99.90;;;;;;5035071;28;20997;-88
2021/11/18 01:27:44;;;;;;;0.40;0.30;;;5.60;99.90;;;;;;5035660;28;20431;-88
2021/11/18 01:30:15;;;;;;;0.50;0.50;;;5.70;99.90;;;;;;5035532;28;20439;-88
2021/11/18 01:32:42;;;;;;;1.03;0.60;;;5.70;99.90;;;;;;5035498;28;20472;-88
2021/11/18 01:35:10;;;;;;;0.40;0.37;;;5.70;99.90;;;;;;5035486;28;20474;-88
2021/11/18 01:37:38;;;;;;;0.30;0.20;;;5.70;99.90;;;;;;5035642;28;20454;-88
2021/11/18 01:40:07;;;;;;;0.30;0.20;;;5.70;99.90;;;;;;5035240;28;20454;-88
2021/11/18 01:42:34;;;;;;;0.30;0.20;;;5.70;99.90;;;;;;5035216;28;20447;-87
2021/11/18 01:45:00;;;;;;;0.30;0.20;;;5.70;99.90;;;;;;5035558;28;20826;-90
2021/11/18 01:47:27;;;;;;;0.50;0.30;;;5.70;99.90;;;;;;5035491;28;20447;-85
2021/11/18 01:49:54;;;;;;;0.30;0.27;;;5.70;99.90;;;;;;5034512;28;20982;-85
2021/11/18 01:52:23;;;;;;;0.30;0.27;;;5.70;99.90;;;;;;5034756;28;20486;-87
2021/11/18 01:54:53;;;;;;;0.60;0.30;;;5.80;99.90;;;;;;5034531;28;20490;-87
2021/11/18 01:57:24;;;;;;;0.30;0.20;;;5.80;99.90;;;;;;5034883;28;20453;-87
2021/11/18 01:59:52;;;;;;;1.80;0.37;;;5.80;99.90;;;;;;5035033;28;20493;-87
2021/11/18 02:02:22;;;;;;;0.30;0.30;;;5.80;99.90;;;;;;5034511;28;20438;-87
2021/11/18 02:04:51;;;;;;;1.53;0.50;;;5.80;99.90;;;;;;5034608;28;20467;-87
2021/11/18 02:07:18;;;;;;;0.37;0.37;;;5.70;99.90;;;;;;5034816;28;20817;-87
2021/11/18 02:09:48;;;;;;;0.50;0.30;;;5.70;99.90;;;;;;5034717;28;20446;-87
2021/11/18 02:12:20;;;;;;;2.83;0.40;;;5.70;99.90;;;;;;5034442;28;20482;-87
2021/11/18 02:14:47;;;;;;;0.30;0.30;;;5.70;99.90;;;;;;5034881;28;20462;-90
2021/11/18 02:17:16;;;;;;;0.30;0.30;;;5.80;99.90;;;;;;5034922;28;20451;-90
2021/11/18 02:19:46;;;;;;;0.30;0.20;;;5.80;99.90;;;;;;5035123;28;20446;-90
2021/11/18 02:22:15;;;;;;;0.30;0.30;;;5.80;99.90;;;;;;5035320;28;20457;-90
2021/11/18 02:24:45;;;;;;;0.30;0.23;;;5.90;99.90;;;;;;5035281;28;20470;-90
2021/11/18 02:27:12;;;;;;;0.30;0.30;;;5.90;99.90;;;;;;5035008;28;20462;-88
2021/11/18 02:29:40;;;;;;;0.30;0.20;;;5.90;99.90;;;;;;5034462;28;20873;-90
2021/11/18 02:32:09;;;;;;;0.30;0.20;;;5.80;99.90;;;;;;5034735;28;20470;-90
2021/11/18 02:34:41;;;;;;;0.30;0.20;;;5.80;99.90;;;;;;5034900;28;20478;-90
2021/11/18 02:37:08;;;;;;;2.47;1.00;;;5.80;99.90;;;;;;5034724;28;20419;-88
2021/11/18 02:39:37;;;;;;;0.30;0.20;;;5.90;99.90;;;;;;5034285;28;20446;-87
2021/11/18 02:42:05;;;;;;;0.30;0.30;;;5.90;99.90;;;;;;5034129;28;20446;-87
2021/11/18 02:44:32;;;;;;;0.30;0.30;;;5.90;99.90;;;;;;5034087;28;20808;-87
2021/11/18 02:46:59;;;;;;;0.30;0.20;;;5.90;99.90;;;;;;5034482;28;20457;-87
2021/11/18 02:49:27;;;;;;;0.30;0.20;;;5.90;99.90;;;;;;5034181;28;20454;-88
2021/11/18 02:51:53;;;;;;;0.57;0.40;;;5.90;99.90;;;;;;5034053;28;20481;-88
2021/11/18 02:54:20;;;;;;;0.83;0.60;;;5.80;99.90;;;;;;5033231;28;20490;-85
2021/11/18 02:56:50;;;;;;;0.30;0.30;;;5.80;99.90;;;;;;5033369;28;20491;-85
2021/11/18 02:59:16;;;;;;;0.73;0.70;;;5.80;99.90;;;;;;5033927;28;20446;-87
2021/11/18 03:01:46;;;;;;;0.30;0.20;;;5.80;99.90;;;;;;5034099;28;20839;-87
2021/11/18 03:04:13;;;;;;;0.50;0.50;;;5.90;99.90;;;;;;5033759;28;20470;-87
2021/11/18 03:06:40;;;;;;;0.30;0.20;;;5.90;99.90;;;;;;5033794;28;20497;-87
2021/11/18 03:09:07;;;;;;;0.30;0.30;;;5.90;99.90;;;;;;5033587;28;20442;-87
2021/11/18 03:11:34;;;;;;;0.73;0.73;;;5.90;99.90;;;;;;5033617;28;20486;-87
2021/11/18 03:14:02;;;;;;;0.40;0.40;;;5.90;99.90;;;;;;5033526;28;20473;-87
2021/11/18 03:16:29;;;;;;;0.90;0.60;;;6.00;99.90;;;;;;5033649;28;20827;-87
2021/11/18 03:18:56;;;;;;;0.30;0.30;;;6.00;99.90;;;;;;5033740;28;20450;-87
2021/11/18 03:21:29;;;;;;;0.80;0.80;;;6.00;99.90;;;;;;5033678;28;20453;-87
2021/11/18 03:23:56;;;;;;;0.40;0.30;;;6.00;99.90;;;;;;5033617;28;20461;-87
2021/11/18 03:26:28;;;;;;;0.63;0.40;;;6.00;99.90;;;;;;5033612;28;20442;-87
2021/11/18 03:28:55;;;;;;;0.30;0.30;;;6.00;99.90;;;;;;5033646;28;20879;-87
2021/11/18 03:31:24;;;;;;;0.30;0.30;;;6.00;99.90;;;;;;5033159;28;20981;-87
2021/11/18 03:33:53;;;;;;;0.30;0.30;;;5.90;99.90;;;;;;5033201;28;20450;-87
2021/11/18 03:36:21;;;;;;;0.30;0.30;;;6.00;99.90;;;;;;5033231;28;20428;-87
2021/11/18 03:38:48;;;;;;;0.30;0.20;;;6.00;99.90;;;;;;5033168;28;20451;-87
2021/11/18 03:41:16;;;;;;;0.30;0.20;;;5.90;99.90;;;;;;5033236;28;20837;-87
2021/11/18 03:43:46;;;;;;;0.30;0.30;;;5.90;99.90;;;;;;5033123;28;20966;-87
2021/11/18 03:46:14;;;;;;;0.47;0.47;;;6.00;99.90;;;;;;5033180;28;20442;-87
2021/11/18 03:48:42;;;;;;;0.30;0.30;;;6.00;99.90;;;;;;5033206;28;20437;-87
2021/11/18 03:51:11;;;;;;;1.57;1.50;;;6.00;99.90;;;;;;5033448;28;20458;-87
2021/11/18 03:53:39;;;;;;;0.30;0.30;;;6.00;99.90;;;;;;5032934;28;20490;-85
2021/11/18 03:56:08;;;;;;;0.30;0.30;;;6.00;99.90;;;;;;5033532;28;20810;-84
2021/11/18 03:58:35;;;;;;;0.30;0.30;;;6.00;99.90;;;;;;5033057;28;20961;-87
2021/11/18 04:01:02;;;;;;;0.40;0.30;;;6.00;99.90;;;;;;5033258;28;20474;-87
2021/11/18 04:03:29;;;;;;;0.30;0.30;;;6.00;99.90;;;;;;5033506;28;20455;-87
2021/11/18 04:05:58;;;;;;;0.60;0.53;;;6.00;99.90;;;;;;5033189;28;20504;-87
2021/11/18 04:08:25;;;;;;;0.30;0.30;;;6.00;99.90;;;;;;5033140;28;20457;-87
2021/11/18 04:10:52;;;;;;;0.30;0.30;;;6.00;99.90;;;;;;5032937;28;20443;-87
2021/11/18 04:13:19;;;;;;;0.30;0.20;;;6.00;99.90;;;;;;5032766;28;20474;-87
2021/11/18 04:15:49;;;;;;;0.60;0.60;;;6.00;99.90;;;;;;5032932;28;20930;-87
2021/11/18 04:18:16;;;;;;;0.30;0.30;;;6.00;99.90;;;;;;5033193;28;20471;-87
2021/11/18 04:20:44;;;;;;;0.73;0.40;;;6.00;99.90;;;;;;5032868;28;21056;-87
2021/11/18 04:23:13;;;;;;;0.30;0.30;;;6.00;99.90;;;;;;5032520;28;20438;-87
2021/11/18 04:25:40;;;;;;;0.30;0.30;;;6.00;99.90;;;;;;5033140;28;20435;-87
2021/11/18 04:28:07;;;;;;;0.40;0.30;;;6.00;99.90;;;;;;5036672;28;20447;-87
2021/11/18 04:30:42;;;;;;;0.30;0.30;;;6.00;99.90;;;;;;5036432;28;20450;-87
2021/11/18 04:33:09;;;;;;;0.60;0.60;;;6.00;99.90;;;;;;5036173;28;21003;-87
2021/11/18 04:35:36;;;;;;;0.30;0.30;;;6.10;99.90;;;;;;5036548;28;20956;-87
2021/11/18 04:38:03;;;;;;;0.30;0.20;;;6.00;99.90;;;;;;5036218;28;20435;-87
2021/11/18 04:40:32;;;;;;;0.30;0.20;;;6.10;99.90;;;;;;5036388;28;20447;-87
2021/11/18 04:42:59;;;;;;;1.13;0.40;;;6.10;99.90;;;;;;5036253;28;20435;-87
2021/11/18 04:45:26;;;;;;;0.50;0.30;;;6.10;99.90;;;;;;5035994;28;21004;-87
2021/11/18 04:47:53;;;;;;;0.30;0.30;;;6.10;99.90;;;;;;5036233;28;20852;-87
2021/11/18 04:50:20;;;;;;;0.50;0.50;;;6.10;99.90;;;;;;5035944;28;20435;-87
2021/11/18 04:52:49;;;;;;;0.30;0.30;;;6.10;99.90;;;;;;5035783;28;20478;-87
2021/11/18 04:55:19;;;;;;;0.30;0.27;;;6.10;99.90;;;;;;5035967;28;20466;-87
2021/11/18 04:57:48;;;;;;;2.10;0.60;;;6.10;99.90;;;;;;5036100;28;20451;-87
2021/11/18 05:00:19;;;;;;;0.30;0.30;;;6.10;99.90;;;;;;5035759;28;20435;-86
2021/11/18 05:02:46;;;;;;;0.70;0.40;;;6.00;99.90;;;;;;5036119;28;20431;-86
2021/11/18 05:05:14;;;;;;;0.40;0.40;;;6.00;99.90;;;;;;5035985;28;20866;-87
2021/11/18 05:07:41;;;;;;;0.30;0.20;;;6.00;99.90;;;;;;5035686;28;20434;-87
2021/11/18 05:10:09;;;;;;;0.40;0.33;;;5.90;99.90;;;;;;5036620;28;20537;-87
2021/11/18 05:12:36;;;;;;;0.40;0.40;;;6.00;99.90;;;;;;5035865;28;20490;-87
2021/11/18 05:15:06;;;;;;;1.47;0.50;;;5.90;99.90;;;;;;5035626;28;20454;-86
2021/11/18 05:17:33;;;;;;;0.40;0.40;;;6.00;99.90;;;;;;5036390;28;20984;-87
2021/11/18 05:19:59;;;;;;;0.30;0.30;;;6.00;99.90;;;;;;5035677;28;20447;-87
2021/11/18 05:22:26;;;;;;;0.30;0.30;;;6.00;99.90;;;;;;5035379;28;20435;-87
2021/11/18 05:24:53;;;;;;;0.30;0.30;;;6.10;99.90;;;;;;5035211;28;20458;-87
2021/11/18 05:27:21;;;;;;;0.40;0.40;;;6.10;99.90;;;;;;5035603;28;20431;-87
2021/11/18 05:29:48;;;;;;;0.30;0.30;;;6.10;99.90;;;;;;5035314;28;20886;-87
2021/11/18 05:32:16;;;;;;;0.93;0.30;;;6.10;99.90;;;;;;5035148;28;20481;-87
2021/11/18 05:34:43;;;;;;;0.30;0.30;;;6.10;99.90;;;;;;5035165;28;20451;-87
2021/11/18 05:37:09;;;;;;;0.80;0.80;;;6.10;99.90;;;;;;5034728;28;20462;-87
2021/11/18 05:39:37;;;;;;;0.30;0.30;;;6.10;99.90;;;;;;5034540;28;20442;-87
2021/11/18 05:42:04;;;;;;;1.53;0.40;;;6.10;99.90;;;;;;5035492;28;20942;-87
2021/11/18 05:44:31;;;;;;;0.93;0.60;;;6.10;99.90;;;;;;5035187;28;20836;-87
2021/11/18 05:46:59;;;;;;;0.70;0.30;;;6.10;99.90;;;;;;5035177;28;20526;-87
2021/11/18 05:49:27;;;;;;;0.33;0.27;;;6.10;99.90;;;;;;5035187;28;20447;-87
2021/11/18 05:51:54;;;;;;;0.30;0.27;;;6.10;99.90;;;;;;5035206;28;20938;-87
2021/11/18 05:54:21;;;;;;;0.30;0.30;;;6.10;99.90;;;;;;5034463;28;21025;-86
2021/11/18 05:56:47;;;;;;;0.60;0.40;;;6.10;99.90;;;;;;5035380;28;20442;-87
2021/11/18 05:59:14;;;;;;;0.40;0.40;;;6.10;99.90;;;;;;5034914;28;20447;-87
2021/11/18 06:01:42;;;;;;;0.30;0.20;;;6.10;99.90;;;;;;5034964;28;20466;-87
2021/11/18 06:04:09;;;;;;;0.80;0.40;;;6.10;99.90;;;;;;5034815;28;20454;-87
2021/11/18 06:06:38;;;;;;;0.57;0.57;;;6.10;99.90;;;;;;5034703;28;20529;-86
2021/11/18 06:09:05;;;;;;;0.30;0.30;;;6.10;99.90;;;;;;5034873;28;20451;-87
2021/11/18 06:11:34;;;;;;;0.57;0.57;;;6.10;99.90;;;;;;5034444;28;20462;-87
2021/11/18 06:14:01;;;;;;;0.30;0.30;;;6.10;99.90;;;;;;5037274;28;20489;-86
2021/11/18 06:16:28;;;;;;;0.30;0.30;;;6.10;99.90;;;;;;5034336;28;20435;-87
2021/11/18 06:18:58;;;;;;;0.43;0.33;;;6.10;99.90;;;;;;5034625;28;20443;-86
2021/11/18 06:21:25;;;;;;;0.70;0.60;;;6.10;99.90;;;;;;5035029;28;20437;-86
2021/11/18 06:23:53;;;;;;;0.30;0.20;;;6.10;99.90;;;;;;5034395;28;20487;-86
2021/11/18 06:26:23;;;;;;;0.30;0.30;;;6.10;99.90;;;;;;5034199;28;20981;-87
2021/11/18 06:28:50;;;;;;;0.30;0.20;;;6.10;99.90;;;;;;5034786;28;20496;-87
2021/11/18 06:31:17;;;;;;;0.30;0.20;;;6.10;99.90;;;;;;5035082;28;20446;-87
2021/11/18 06:33:44;;;;;;;0.30;0.20;;;6.00;99.90;;;;;;5034128;28;20479;-86
2021/11/18 06:36:11;;;;;;;0.30;0.30;;;6.00;99.90;;;;;;5034187;28;20458;-86
2021/11/18 06:38:40;;;;;;;0.30;0.30;;;5.90;99.90;;;;;;5034244;28;20435;-87
2021/11/18 06:41:09;;;;;;;0.73;0.73;;;6.00;99.90;;;;;;5035031;28;20451;-86
2021/11/18 06:43:37;;;;;;;0.60;0.40;;;6.10;99.90;;;;;;5033972;28;20463;-85
2021/11/18 06:46:04;;;;;;;0.40;0.30;;;6.10;99.90;;;;;;5034085;28;20451;-86
2021/11/18 06:48:32;;;;;;;0.60;0.40;;;6.10;99.90;;;;;;5033598;28;20446;-87
2021/11/18 06:51:00;;;;;;;0.40;0.30;;;6.10;99.90;;;;;;5034714;28;20470;-87
2021/11/18 06:53:27;;;;;;;0.30;0.30;;;6.10;99.90;;;;;;5033629;28;20581;-87
2021/11/18 06:55:53;;;;;;;0.30;0.30;;;6.10;99.90;;;;;;5034102;28;20824;-87
2021/11/18 06:58:22;;;;;;;0.30;0.20;;;6.20;99.90;;;;;;5033884;28;20438;-87
2021/11/18 07:00:48;;;;;;;0.40;0.40;;;6.20;99.90;;;;;;5033938;28;20473;-87
2021/11/18 07:03:15;;;;;;;2.30;0.70;;;6.20;99.90;;;;;;5033804;28;20447;-87
2021/11/18 07:05:42;;;;;;;0.90;0.90;;;6.20;99.90;;;;;;5034022;28;20462;-87
2021/11/18 07:08:10;;;;;;;0.30;0.30;;;6.20;99.90;;;;;;5033796;28;20438;-87
2021/11/18 07:10:41;;;;;;;0.40;0.30;;;6.20;99.90;;;;;;5033510;28;20989;-87
2021/11/18 07:13:12;;;;;;;0.30;0.30;;;6.30;99.90;;;;;;5033598;28;20467;-87
2021/11/18 07:15:40;;;;;;;0.30;0.20;;;6.30;99.90;;;;;;5034006;28;20442;-87
2021/11/18 07:18:07;;;;;;;0.30;0.30;;;6.30;99.90;;;;;;5033858;28;20641;-87
2021/11/18 07:20:34;;;;;;;0.40;0.40;;;6.30;99.90;;;;;;5034737;28;20451;-87
2021/11/18 07:23:01;;;;;;;0.60;0.50;;;6.30;99.90;;;;;;5033838;28;20451;-87
2021/11/18 07:25:28;;;;;;;0.43;0.43;;;6.30;99.90;;;;;;5033624;28;20474;-87
2021/11/18 07:27:57;;;;;;;0.40;0.33;;;6.40;99.90;;;;;;5033702;28;20465;-87
2021/11/18 07:30:25;;;;;;;0.30;0.30;;;6.40;99.90;;;;;;5033326;28;20530;-87
2021/11/18 07:32:53;;;;;;;3.70;0.50;;;6.40;99.90;;;;;;5033631;28;20435;-87
2021/11/18 07:35:21;;;;;;;0.57;0.57;;;6.40;99.90;;;;;;5033535;28;20473;-87
2021/11/18 07:37:48;;;;;;;0.43;0.40;;;6.40;99.90;;;;;;5033292;28;20427;-87
2021/11/18 07:40:17;;;;;;;0.70;0.40;;;6.40;99.90;;;;;;5033514;28;20450;-87
2021/11/18 07:42:46;;;;;;;0.30;0.30;;;6.50;99.90;;;;;;5033432;28;20449;-86
2021/11/18 07:45:14;;;;;;;0.30;0.30;;;6.50;99.90;;;;;;5033512;28;20458;-87
2021/11/18 07:47:41;;;;;;;0.83;0.43;;;6.50;99.90;;;;;;5033500;28;20821;-87
2021/11/18 07:50:11;;;;;;;0.30;0.30;;;6.40;99.90;;;;;;5033572;28;20465;-87
2021/11/18 07:52:39;;;;;;;0.30;0.30;;;6.50;99.90;;;;;;5033588;28;20494;-87
2021/11/18 07:55:09;;;;;;;0.40;0.40;;;6.50;99.90;;;;;;5033000;28;20474;-87
2021/11/18 07:57:36;;;;;;;0.93;0.63;;;6.60;99.90;;;;;;5033481;28;20454;-87
2021/11/18 08:00:06;;;;;;;0.43;0.40;;;6.60;99.90;;;;;;5033384;28;20461;-87
2021/11/18 08:02:33;;;;;;;1.63;0.40;;;6.50;99.90;;;;;;5036241;28;20441;-87
2021/11/18 08:04:59;;;;;;;0.30;0.30;;;6.60;99.90;;;;;;5037177;28;20474;-87
2021/11/18 08:07:27;;;;;;;0.30;0.20;;;6.60;99.90;;;;;;5037513;28;20454;-87
2021/11/18 08:09:55;;;;;;;0.30;0.20;;;6.60;99.90;;;;;;5038006;28;20454;-87
2021/11/18 08:12:22;;;;;;;1.23;1.23;;;6.70;99.90;;;;;;5037169;28;20529;-87
2021/11/18 08:14:49;;;;;;;0.30;0.30;;;6.70;99.90;;;;;;5036801;28;20518;-87
2021/11/18 08:17:16;;;;;;;1.90;1.90;;;6.70;99.90;;;;;;5036741;28;20439;-87
2021/11/18 08:19:43;;;;;;;0.60;0.37;;;6.70;99.90;;;;;;5036927;28;20477;-87
2021/11/18 08:22:10;;;;;;;0.50;0.30;;;6.80;99.90;;;;;;5036986;28;20442;-87
2021/11/18 08:24:38;;;;;;;2.10;0.70;;;6.80;99.90;;;;;;5036879;28;20470;-86
2021/11/18 08:27:05;;;;;;;0.70;0.40;;;6.70;99.90;;;;;;5036785;28;20446;-87
2021/11/18 08:29:33;;;;;;;0.80;0.50;;;6.70;99.90;;;;;;5036824;28;20435;-87
2021/11/18 08:32:00;;;;;;;1.03;0.50;;;6.70;99.90;;;;;;5036749;28;20458;-87
2021/11/18 08:34:27;;;;;;;0.30;0.30;;;6.70;99.90;;;;;;5036445;28;20496;-87
2021/11/18 08:36:54;;;;;;;3.50;0.40;;;6.70;99.90;;;;;;5036400;28;20443;-87
2021/11/18 08:39:24;;;;;;;0.40;0.30;;;6.70;99.90;;;;;;5036480;28;20446;-86
2021/11/18 08:41:54;;;;;;;0.30;0.30;;;6.70;99.90;;;;;;5036052;28;20938;-87
2021/11/18 08:44:22;;;;;;;0.87;0.50;;;6.80;99.90;;;;;;5036418;28;20475;-87
2021/11/18 08:46:50;;;;;;;0.60;0.60;;;6.70;99.90;;;;;;5036458;28;20458;-87
2021/11/18 08:49:18;;;;;;;0.87;0.30;;;6.80;99.90;;;;;;5036237;28;21016;-86
2021/11/18 08:51:45;;;;;;;0.43;0.43;;;6.90;99.90;;;;;;5036364;28;20446;-87
2021/11/18 08:54:15;;;;;;;0.30;0.30;;;7.00;99.90;;;;;;5035750;28;20498;-87
2021/11/18 08:56:43;;;;;;;1.70;1.70;;;7.10;99.90;;;;;;5036243;28;20447;-87
2021/11/18 08:59:11;;;;;;;0.60;0.60;;;7.20;99.90;;;;;;5035902;28;20506;-87
2021/11/18 09:01:40;;;;;;;1.70;0.60;;;7.40;99.90;;;;;;5036064;28;20817;-87
2021/11/18 09:04:09;;;;;;;0.30;0.27;;;7.50;99.90;;;;;;5036094;28;20471;-87
2021/11/18 09:06:36;;;;;;;0.50;0.50;;;7.70;99.90;;;;;;5036070;28;20442;-86
2021/11/18 09:09:05;;;;;;;0.40;0.40;;;7.80;99.90;;;;;;5035846;28;20446;-87
2021/11/18 09:11:32;;;;;;;1.07;1.07;;;7.90;99.90;;;;;;5035829;28;20431;-86
2021/11/18 09:14:01;;;;;;;1.00;0.70;;;8.00;99.90;;;;;;5036160;28;20525;-87
2021/11/18 09:16:31;;;;;;;0.97;0.40;;;8.10;99.90;;;;;;5035976;28;20910;-87
2021/11/18 09:18:58;;;;;;;0.37;0.37;;;8.20;99.90;;;;;;5035900;28;20427;-87
2021/11/18 09:21:27;;;;;;;0.80;0.30;;;8.30;99.90;;;;;;5035925;28;20446;-87
2021/11/18 09:24:05;;;;;;;0.33;0.33;;;8.40;99.90;;;;;;5035833;28;20471;-87
2021/11/18 09:26:35;;;;;;;0.30;0.30;;;8.50;99.90;;;;;;5036063;28;20445;-87
2021/11/18 09:29:02;;;;;;;0.30;0.20;;;8.70;99.90;;;;;;5035924;28;20820;-87
2021/11/18 09:31:30;;;;;;;0.40;0.40;;;8.80;99.90;;;;;;5035644;28;20437;-87
2021/11/18 09:33:58;;;;;;;0.60;0.60;;;8.90;99.90;;;;;;5035346;28;20502;-87
2021/11/18 09:36:27;;;;;;;0.83;0.83;;;9.00;99.90;;;;;;5035541;28;20423;-87
2021/11/18 09:38:55;;;;;;;0.40;0.33;;;9.00;99.90;;;;;;5035493;28;20775;-87
2021/11/18 09:41:58;;;;;;;0.93;0.70;;;9.10;99.90;;;;;;5035309;28;20455;-87
2021/11/18 09:44:51;;;;;;;0.50;0.50;;;9.10;99.90;;;;;;5035081;28;20459;-84
2021/11/18 09:48:01;;;;;;;2.30;0.60;;;8.90;99.90;;;;;;5035043;28;20462;-86
2021/11/18 09:50:38;;;;;;;0.50;0.50;;;8.90;99.90;;;;;;5034945;28;20454;-87
2021/11/18 09:53:14;;;;;;;0.40;0.37;;;8.90;99.90;;;;;;5034765;28;20806;-86
2021/11/18 09:55:45;;;;;;;0.60;0.40;;;8.90;99.90;;;;;;5034670;28;20467;-86
2021/11/18 09:58:28;;;;;;;0.50;0.50;;;8.90;99.90;;;;;;5034986;28;20449;-86
2021/11/18 10:01:23;;;;;;;0.40;0.33;;;9.00;99.90;;;;;;5034936;28;20446;-86
2021/11/18 10:03:56;;;;;;;0.87;0.87;;;9.10;99.90;;;;;;5034764;28;20463;-86
2021/11/18 10:06:27;;;;;;;0.50;0.30;;;9.20;99.90;;;;;;5034461;28;20439;-86
2021/11/18 10:09:01;;;;;;;1.13;0.40;;;9.20;99.90;;;;;;5034762;28;20431;-86
2021/11/18 10:11:40;;;;;;;1.70;0.43;;;9.30;99.90;;;;;;5035102;28;20451;-86
2021/11/18 10:14:40;;;;;;;0.40;0.30;;;9.50;99.90;;;;;;5034484;28;20482;-87
2021/11/18 10:17:20;;;;;;;1.50;0.50;;;9.80;99.90;;;;;;5034822;28;20465;-86
2021/11/18 10:19:50;;;;;;;0.77;0.40;;;10.00;99.90;;;;;;5034253;28;20419;-86
2021/11/18 10:22:18;;;;;;;0.73;0.73;;;10.20;99.90;;;;;;5034265;28;20435;-87
2021/11/18 10:24:47;;;;;;;0.43;0.43;;;10.30;99.90;;;;;;5033633;28;20982;-86
2021/11/18 10:27:21;;;;;;;0.50;0.30;;;10.30;99.90;;;;;;5034457;28;20465;-86
2021/11/18 10:30:04;;;;;;;0.40;0.40;;;10.30;99.90;;;;;;5034527;28;20427;-86
2021/11/18 10:32:33;;;;;;;0.60;0.60;;;10.20;99.90;;;;;;5034310;28;20609;-87
2021/11/18 10:35:09;;;;;;;0.40;0.40;;;10.00;99.90;;;;;;5033878;28;20486;-86
2021/11/18 10:37:40;;;;;;;1.20;0.43;;;10.10;99.90;;;;;;5034375;28;20438;-86
2021/11/18 10:40:12;;;;;;;0.50;0.40;;;10.00;99.90;;;;;;5034596;28;20454;-86
2021/11/18 10:42:42;;;;;;;0.40;0.30;;;10.00;99.90;;;;;;5034163;28;20431;-86
2021/11/18 10:45:10;;;;;;;0.80;0.47;;;10.10;99.90;;;;;;5033782;28;20465;-86
2021/11/18 10:47:43;;;;;;;2.17;0.40;;;10.20;99.90;;;;;;5033835;28;20435;-86
2021/11/18 10:50:31;;;;;;;0.30;0.30;;;10.30;99.90;;;;;;5033843;28;20425;-86
2021/11/18 10:53:14;;;;;;;0.30;0.30;;;10.40;99.90;;;;;;5033701;28;20443;-86
2021/11/18 10:55:43;;;;;;;1.77;0.50;;;10.50;99.90;;;;;;5033831;28;20470;-86
2021/11/18 10:58:14;;;;;;;0.40;0.33;;;10.70;99.90;;;;;;5033822;28;20883;-86
2021/11/18 11:00:45;;;;;;;0.40;0.40;;;10.80;99.90;;;;;;5033846;28;20435;-86
2021/11/18 11:03:24;;;;;;;1.43;0.83;;;10.80;99.90;;;;;;5033886;28;20418;-86
2021/11/18 11:06:09;;;;;;;0.40;0.30;;;10.80;99.90;;;;;;5033512;28;20902;-86
2021/11/18 11:08:38;;;;;;;0.40;0.30;;;10.60;99.90;;;;;;5033812;28;20422;-86
2021/11/18 11:11:12;;;;;;;0.60;0.47;;;10.50;99.90;;;;;;5033901;28;20451;-86
2021/11/18 11:14:09;;;;;;;0.60;0.60;;;10.30;99.90;;;;;;5033729;28;20462;-86
2021/11/18 11:17:12;;;;;;;0.47;0.47;;;10.20;99.90;;;;;;5034069;28;20431;-86
2021/11/18 11:19:46;;;;;;;1.23;0.43;;;10.00;99.90;;;;;;4984123;28;20442;-86
2021/11/18 11:22:23;;;;;;;0.60;0.40;;;10.00;99.90;;;;;;5033556;28;20427;-86
2021/11/18 11:25:22;;;;;;;0.40;0.40;;;10.00;99.90;;;;;;5033246;28;20461;-86
2021/11/18 11:28:11;;;;;;;0.90;0.30;;;10.00;99.90;;;;;;5033581;28;20435;-86
2021/11/18 11:30:45;;;;;;;0.30;0.30;;;9.90;99.90;;;;;;5033590;28;20435;-86
2021/11/18 11:33:20;;;;;;;1.23;0.53;;;9.90;99.90;;;;;;5033414;28;20426;-86
2021/11/18 11:35:52;;;;;;;0.33;0.33;;;9.90;99.90;;;;;;5033690;28;20470;-86
2021/11/18 11:38:58;;;;;;;0.30;0.30;;;9.90;99.90;;;;;;5037550;28;20434;-86
2021/11/18 11:41:48;;;;;;;0.30;0.30;;;9.80;99.90;;;;;;5024619;28;20458;-86
2021/11/18 11:44:21;;;;;;;0.30;0.20;;;9.70;99.90;;;;;;5037218;28;20556;-86
2021/11/18 11:46:54;;;;;;;0.50;0.40;;;9.60;99.90;;;;;;5036981;28;20422;-86
2021/11/18 11:49:34;;;;;;;1.10;0.53;;;9.60;99.90;;;;;;5037155;28;20435;-86
2021/11/18 11:52:22;;;;;;;0.77;0.77;;;9.60;99.90;;;;;;5036931;28;20438;-86
2021/11/18 11:55:24;;;;;;;1.80;0.77;;;9.60;99.90;;;;;;5036745;28;20490;-86
2021/11/18 11:57:57;;;;;;;0.30;0.20;;;9.60;99.90;;;;;;5016911;28;20465;-86
2021/11/18 12:00:29;;;;;;;0.93;0.40;;;9.50;99.90;;;;;;5037153;28;20445;-86
2021/11/18 12:03:17;;;;;;;0.50;0.40;;;9.50;99.90;;;;;;5037176;28;20453;-86
2021/11/18 12:05:52;;;;;;;1.17;1.00;;;9.40;99.90;;;;;;5036752;28;20434;-86
2021/11/18 12:08:27;;;;;;;0.40;0.30;;;9.40;99.90;;;;;;5036820;28;20484;-86
2021/11/18 12:11:03;;;;;;;0.30;0.30;;;9.30;99.90;;;;;;5036934;28;20403;-86
2021/11/18 12:13:39;;;;;;;0.40;0.33;;;9.30;99.90;;;;;;5036896;28;20435;-86
2021/11/18 12:16:14;;;;;;;0.40;0.30;;;9.30;99.90;;;;;;5036580;28;20514;-86
2021/11/18 12:18:47;;;;;;;0.30;0.30;;;9.30;99.90;;;;;;5036863;28;20430;-86
2021/11/18 12:21:17;;;;;;;0.30;0.30;;;9.30;99.90;;;;;;5036575;28;20411;-86
2021/11/18 12:24:10;;;;;;;0.40;0.40;;;9.30;99.90;;;;;;5036647;28;20470;-86
2021/11/18 12:26:55;;;;;;;0.60;0.60;;;9.30;99.90;;;;;;5036404;28;20408;-86
2021/11/18 12:29:36;;;;;;;0.40;0.40;;;9.40;99.90;;;;;;5036531;28;20435;-86
2021/11/18 12:32:36;;;;;;;0.60;0.30;;;9.30;99.90;;;;;;5036260;28;20437;-86
2021/11/18 12:35:09;;;;;;;0.30;0.30;;;9.30;99.90;;;;;;5036096;28;20926;-86
2021/11/18 12:37:59;;;;;;;0.30;0.27;;;9.30;99.90;;;;;;5036453;28;20443;-86
2021/11/18 12:40:41;;;;;;;0.40;0.40;;;9.30;99.90;;;;;;5036567;28;20451;-86
2021/11/18 12:43:41;;;;;;;0.40;0.30;;;9.30;99.90;;;;;;5036438;28;20910;-86
2021/11/18 12:46:18;;;;;;;0.30;0.20;;;9.40;99.90;;;;;;5036450;28;20462;-86
2021/11/18 12:49:14;;;;;;;0.40;0.40;;;9.40;99.90;;;;;;5036343;28;20421;-86
2021/11/18 12:52:04;;;;;;;0.30;0.30;;;9.30;99.90;;;;;;5036367;28;20450;-86
2021/11/18 12:54:35;;;;;;;5.60;0.50;;;9.30;99.90;;;;;;5035610;28;20488;-86
2021/11/18 12:57:28;;;;;;;0.40;0.30;;;9.40;99.90;;;;;;5035944;28;20407;-86
2021/11/18 12:59:57;;;;;;;0.40;0.30;;;9.40;99.90;;;;;;5035938;28;20438;-86
2021/11/18 13:02:51;;;;;;;0.30;0.30;;;9.40;99.90;;;;;;5035780;28;20434;-86
2021/11/18 13:05:53;;;;;;;0.30;0.30;;;9.30;99.90;;;;;;5035711;28;20492;-86
2021/11/18 13:08:51;;;;;;;0.30;0.30;;;9.40;99.90;;;;;;5035889;28;20417;-86
2021/11/18 13:11:34;;;;;;;0.30;0.30;;;9.40;99.90;;;;;;5019559;28;20826;-85
2021/11/18 13:14:31;;;;;;;0.57;0.40;;;9.40;99.90;;;;;;5017131;28;20837;-86
2021/11/18 13:17:11;;;;;;;0.30;0.30;;;9.40;99.90;;;;;;5035408;28;20457;-86